Time;durP1;ratioP1;P1;durP2;ratioP2;P2;SDS_P1;SDS_P2;PMS_P1;PMS_P2;Temp;Humidity;BMP_temperature;BMP_pressure;BME280_temperature;BME280_humidity;BME280_pressure;Samples;Min_cycle;Max_cycle;Signal;HPM_P1;HPM_P2
2022/05/30 00:02:24;;;;;;;10.35;2.10;;;;;;;10.54;69.45;99845.31;5103125;28;20031;-71
2022/05/30 00:04:50;;;;;;;11.50;2.13;;;;;;;10.57;69.62;99857.41;5084598;28;20065;-72
2022/05/30 00:07:15;;;;;;;10.40;2.42;;;;;;;10.55;69.56;99856.56;5102948;28;20484;-71
2022/05/30 00:09:41;;;;;;;9.80;2.17;;;;;;;10.52;69.65;99860.09;5084746;28;20042;-72
2022/05/30 00:12:06;;;;;;;12.05;2.42;;;;;;;10.52;69.53;99862.69;5102272;28;20012;-72
2022/05/30 00:14:33;;;;;;;10.80;2.78;;;;;;;10.46;69.55;99851.50;5102808;28;20427;-72
2022/05/30 00:16:58;;;;;;;7.63;2.15;;;;;;;10.49;69.61;99861.88;5103253;28;20048;-72
2022/05/30 00:19:23;;;;;;;9.98;2.55;;;;;;;10.40;69.69;99848.13;5102718;28;20019;-71
2022/05/30 00:21:49;;;;;;;12.20;2.20;;;;;;;10.48;69.46;99860.16;5102610;28;20028;-72
2022/05/30 00:24:14;;;;;;;7.53;1.85;;;;;;;10.47;69.39;99858.44;5102937;28;20458;-72
2022/05/30 00:26:39;;;;;;;10.05;1.98;;;;;;;10.56;69.05;99867.81;5102627;28;20024;-72
2022/05/30 00:29:06;;;;;;;8.93;1.88;;;;;;;10.56;68.94;99862.63;5084702;28;20073;-72
2022/05/30 00:31:32;;;;;;;11.40;2.55;;;;;;;10.58;68.88;99860.84;5102906;28;20024;-72
2022/05/30 00:33:57;;;;;;;11.35;2.10;;;;;;;10.51;68.81;99850.56;5102706;28;20039;-71
2022/05/30 00:36:23;;;;;;;7.32;2.47;;;;;;;10.63;68.75;99869.41;5102400;28;20035;-72
2022/05/30 00:38:48;;;;;;;8.52;2.20;;;;;;;10.65;68.57;99872.84;5102831;28;20099;-72
2022/05/30 00:41:14;;;;;;;12.30;2.17;;;;;;;10.63;68.59;99865.09;5084434;28;20020;-72
2022/05/30 00:43:41;;;;;;;12.35;2.00;;;;;;;10.63;68.63;99864.22;5102783;28;20024;-72
2022/05/30 00:46:12;;;;;;;9.90;2.40;;;;;;;10.62;68.52;99865.94;5102681;28;20498;-72
2022/05/30 00:48:54;;;;;;;7.93;2.30;;;;;;;10.58;68.63;99866.03;5102817;28;20101;-72
2022/05/30 00:51:24;;;;;;;5.15;1.90;;;;;;;10.65;68.47;99873.69;5102145;28;20060;-71
2022/05/30 00:53:54;;;;;;;18.88;2.53;;;;;;;10.69;68.39;99873.66;5102990;28;20032;-72
2022/05/30 00:56:21;;;;;;;10.13;2.97;;;;;;;10.70;68.24;99867.56;5102764;28;20035;-71
2022/05/30 00:58:48;;;;;;;10.73;2.33;;;;;;;10.66;68.49;99877.16;5102442;28;20035;-71
2022/05/30 01:01:15;;;;;;;12.40;2.20;;;;;;;10.61;68.67;99873.75;5102269;28;20028;-71
2022/05/30 01:06:37;;;;;;;15.63;2.30;;;;;;;10.45;69.47;99884.38;5102563;28;20058;-71
2022/05/30 01:09:08;;;;;;;8.00;2.17;;;;;;;10.39;69.69;99885.34;5102431;28;20045;-71
2022/05/30 01:11:50;;;;;;;9.13;2.13;;;;;;;10.38;69.79;99883.63;5102400;28;20024;-71
2022/05/30 01:14:15;;;;;;;;;;;;;;;10.37;69.76;99879.31;5102924;28;20036;-72
2022/05/30 01:16:40;;;;;;;8.48;2.33;;;;;;;10.28;70.05;99877.75;5102333;28;19908;-71
2022/05/30 01:19:14;;;;;;;9.23;2.20;;;;;;;10.23;70.82;99882.13;5102161;28;20028;-70
2022/05/30 01:22:05;;;;;;;8.20;2.25;;;;;;;10.23;70.80;99887.31;5102627;28;20023;-71
2022/05/30 01:24:55;;;;;;;17.83;3.22;;;;;;;10.19;70.97;99882.22;5106052;28;20024;-71
2022/05/30 01:27:23;;;;;;;11.43;2.38;;;;;;;10.16;70.93;99886.56;5106219;28;20123;-71
2022/05/30 01:30:03;;;;;;;9.60;3.15;;;;;;;10.14;71.22;99892.66;5106107;28;20019;-71
2022/05/30 01:32:28;;;;;;;11.25;2.83;;;;;;;10.10;71.33;99878.00;5106155;28;20045;-71
2022/05/30 01:34:53;;;;;;;14.73;3.13;;;;;;;10.15;71.21;99894.34;5105941;28;20063;-71
2022/05/30 01:37:19;;;;;;;10.68;2.35;;;;;;;10.15;71.31;99891.75;5105713;28;20370;-71
2022/05/30 01:39:44;;;;;;;7.45;2.97;;;;;;;10.08;71.33;99887.56;5105659;28;20032;-71
2022/05/30 01:42:10;;;;;;;10.05;2.50;;;;;;;10.05;71.45;99893.63;5105791;28;20020;-72
2022/05/30 01:44:35;;;;;;;16.13;2.72;;;;;;;10.07;71.34;99899.66;5105422;28;20446;-72
2022/05/30 01:47:01;;;;;;;9.93;2.60;;;;;;;10.06;71.38;99899.69;5105732;28;20024;-71
2022/05/30 01:49:26;;;;;;;14.48;2.78;;;;;;;10.06;71.35;99900.56;5105584;28;20031;-71
2022/05/30 01:51:54;;;;;;;8.85;2.58;;;;;;;10.03;71.41;99904.03;5105059;28;20051;-72
2022/05/30 01:54:20;;;;;;;12.40;3.13;;;;;;;10.01;71.36;99907.53;5105646;28;20024;-72
2022/05/30 01:56:46;;;;;;;12.27;2.70;;;;;;;9.98;71.36;99908.44;5105500;28;20089;-71
2022/05/30 01:59:11;;;;;;;7.25;2.50;;;;;;;9.97;71.25;99905.88;5105366;28;20066;-71
2022/05/30 02:01:39;;;;;;;9.65;3.05;;;;;;;9.90;71.39;99911.13;5105432;28;20028;-72
2022/05/30 02:04:04;;;;;;;11.02;2.45;;;;;;;9.87;71.50;99911.16;5104711;28;20019;-72
2022/05/30 02:06:31;;;;;;;8.27;3.00;;;;;;;9.84;71.45;99915.56;5105053;28;20028;-72
2022/05/30 02:08:57;;;;;;;15.32;3.50;;;;;;;9.82;71.41;99920.75;5104940;28;20028;-71
2022/05/30 02:11:22;;;;;;;13.75;2.60;;;;;;;9.78;71.33;99921.66;5104932;28;20030;-72
2022/05/30 02:13:48;;;;;;;14.40;3.13;;;;;;;9.74;71.23;99920.00;5104893;28;20028;-71
2022/05/30 02:19:00;;;;;;;14.13;2.85;;;;;;;9.69;71.38;99932.16;5105011;28;20057;-71
2022/05/30 02:21:26;;;;;;;7.20;2.17;;;;;;;9.64;71.29;99930.47;5086195;28;20478;-72
2022/05/30 02:23:51;;;;;;;10.63;2.58;;;;;;;9.63;71.15;99933.94;5104818;28;20027;-72
2022/05/30 02:26:17;;;;;;;10.88;1.88;;;;;;;9.62;71.22;99931.34;5104634;28;20035;-72
2022/05/30 02:28:42;;;;;;;12.15;2.60;;;;;;;9.63;71.13;99931.34;5104786;28;20075;-72
2022/05/30 02:31:08;;;;;;;10.98;2.10;;;;;;;9.57;71.14;99936.59;5104502;28;20074;-72
2022/05/30 02:39:02;;;;;;;12.52;2.33;;;;;;;9.53;71.15;99945.28;5104869;28;20034;-72
2022/05/30 02:41:28;;;;;;;9.95;2.63;;;;;;;9.15;71.23;99886.09;5104635;28;20016;-71
2022/05/30 02:43:53;;;;;;;10.75;2.28;;;;;;;9.50;71.27;99950.50;5104343;28;20083;-71
2022/05/30 02:46:19;;;;;;;9.77;2.30;;;;;;;9.48;71.27;99944.47;5104260;28;20046;-72
2022/05/30 02:48:44;;;;;;;14.90;2.45;;;;;;;9.53;71.27;99951.34;5104336;28;20024;-71
2022/05/30 02:51:10;;;;;;;9.07;2.20;;;;;;;9.54;71.25;99955.63;5103757;28;20044;-71
2022/05/30 02:53:36;;;;;;;8.68;2.53;;;;;;;9.57;71.23;99949.56;5104297;28;20024;-72
2022/05/30 02:56:01;;;;;;;10.35;2.22;;;;;;;9.49;71.16;99941.03;5104139;28;20020;-71
2022/05/30 02:58:27;;;;;;;9.20;2.38;;;;;;;9.56;71.20;99958.22;5104220;28;20031;-71
2022/05/30 03:00:52;;;;;;;13.55;2.42;;;;;;;9.56;71.31;99958.22;5104055;28;20020;-71
2022/05/30 03:03:18;;;;;;;18.02;3.70;;;;;;;9.54;71.52;99954.78;5104011;28;20023;-71
2022/05/30 03:05:44;;;;;;;10.23;2.47;;;;;;;9.53;71.66;99958.25;5104231;28;20084;-71
2022/05/30 03:08:10;;;;;;;10.68;2.50;;;;;;;9.50;71.90;99953.09;5104020;28;20020;-71
2022/05/30 03:10:37;;;;;;;7.43;2.45;;;;;;;9.53;72.14;99958.25;5103857;28;20665;-71
2022/05/30 03:13:03;;;;;;;17.50;2.60;;;;;;;9.52;72.38;99953.94;5103951;28;20544;-71
2022/05/30 03:15:29;;;;;;;8.38;2.95;;;;;;;9.51;72.53;99966.03;5104008;28;20059;-71
2022/05/30 03:17:54;;;;;;;12.73;2.72;;;;;;;9.49;72.56;99966.94;5104361;28;20035;-68
2022/05/30 03:20:20;;;;;;;9.60;2.13;;;;;;;9.50;72.72;99969.53;5104371;28;20083;-71
2022/05/30 03:22:47;;;;;;;4.82;1.88;;;;;;;9.53;72.83;99976.38;5104149;28;20027;-71
2022/05/30 03:25:14;;;;;;;12.65;2.90;;;;;;;9.54;72.86;99975.50;5104375;28;20020;-69
2022/05/30 03:27:39;;;;;;;10.60;2.03;;;;;;;9.57;73.06;99979.81;5104314;28;20035;-71
2022/05/30 03:30:06;;;;;;;9.32;2.17;;;;;;;9.54;72.88;99967.72;5104298;28;20111;-71
2022/05/30 03:32:31;;;;;;;6.25;2.40;;;;;;;9.58;72.96;99965.97;5104160;28;20524;-71
2022/05/30 03:34:57;;;;;;;8.73;3.40;;;;;;;9.64;72.90;99982.31;5104121;28;20052;-72
2022/05/30 03:37:22;;;;;;;9.48;2.30;;;;;;;9.70;72.75;99988.28;5103967;28;20076;-71
2022/05/30 03:39:47;;;;;;;9.93;2.47;;;;;;;9.65;72.72;99973.66;5103866;28;20024;-72
2022/05/30 03:42:14;;;;;;;8.80;2.05;;;;;;;9.69;72.82;99995.22;5085643;28;20020;-71
2022/05/30 03:44:41;;;;;;;9.55;2.95;;;;;;;9.65;72.63;99978.84;5103761;28;20031;-72
2022/05/30 03:47:07;;;;;;;7.20;2.30;;;;;;;9.74;72.68;99992.56;5085237;28;20019;-71
2022/05/30 03:49:32;;;;;;;6.68;1.90;;;;;;;9.74;72.77;99993.44;5085503;28;20028;-70
2022/05/30 03:51:58;;;;;;;9.93;2.42;;;;;;;9.77;72.74;99997.72;5103592;28;20186;-70
2022/05/30 03:54:24;;;;;;;6.20;2.20;;;;;;;9.74;72.62;99987.38;5103902;28;20476;-70
2022/05/30 03:56:49;;;;;;;6.97;2.00;;;;;;;9.78;72.36;99996.84;5103863;28;20311;-70
2022/05/30 03:59:14;;;;;;;5.05;2.47;;;;;;;9.75;72.70;100000.34;5104012;28;20015;-71
2022/05/30 04:01:40;;;;;;;9.80;3.55;;;;;;;9.70;72.92;99993.47;5103802;28;20076;-69
2022/05/30 04:04:05;;;;;;;9.02;3.08;;;;;;;9.72;72.94;99991.72;5103362;28;20024;-70
2022/05/30 04:06:32;;;;;;;7.45;2.25;;;;;;;9.66;72.99;99980.53;5103135;28;20035;-70
2022/05/30 04:08:57;;;;;;;11.07;2.80;;;;;;;9.71;73.05;99995.19;5103624;28;20051;-70
2022/05/30 04:11:22;;;;;;;8.68;2.63;;;;;;;9.79;73.10;99993.38;5103379;28;20034;-71
2022/05/30 04:13:49;;;;;;;13.98;2.67;;;;;;;9.90;72.96;99996.69;5103273;28;20383;-69
2022/05/30 04:16:15;;;;;;;10.95;3.58;;;;;;;9.97;72.68;100000.06;5103386;28;20056;-72
2022/05/30 04:18:41;;;;;;;11.20;2.97;;;;;;;10.03;72.49;100005.16;5103316;28;20486;-71
2022/05/30 04:21:09;;;;;;;14.88;2.70;;;;;;;10.07;72.32;99998.22;5103114;28;20031;-70
2022/05/30 04:23:35;;;;;;;15.00;3.83;;;;;;;10.06;72.40;99998.25;5103548;28;20027;-71
2022/05/30 04:26:03;;;;;;;8.73;2.28;;;;;;;10.04;72.04;99991.34;5103465;28;20139;-70
2022/05/30 04:28:29;;;;;;;9.38;2.78;;;;;;;9.94;72.13;99992.31;5103399;28;20483;-70
2022/05/30 04:30:55;;;;;;;7.65;2.13;;;;;;;10.07;72.40;100023.28;5103219;28;20047;-70
2022/05/30 04:33:20;;;;;;;8.25;2.58;;;;;;;10.08;72.43;100020.66;5103062;28;20024;-71
2022/05/30 04:35:45;;;;;;;6.70;2.58;;;;;;;10.11;72.33;100025.81;5085070;28;20052;-71
2022/05/30 04:38:11;;;;;;;13.00;2.75;;;;;;;10.16;72.22;100024.03;5102805;28;20503;-71
2022/05/30 04:40:36;;;;;;;9.63;2.28;;;;;;;10.22;72.36;100030.03;5084909;28;20040;-72
2022/05/30 04:43:01;;;;;;;9.98;2.38;;;;;;;10.34;72.44;100029.84;5103277;28;20444;-73
2022/05/30 04:45:27;;;;;;;7.63;2.25;;;;;;;10.52;72.20;100028.78;5103302;28;20113;-72
2022/05/30 04:47:52;;;;;;;10.07;2.92;;;;;;;10.63;71.48;100033.81;5103485;28;20016;-73
2022/05/30 04:50:18;;;;;;;11.82;2.72;;;;;;;10.70;71.30;100036.31;5103061;28;20031;-72
2022/05/30 04:52:44;;;;;;;8.98;2.35;;;;;;;10.71;71.21;100033.69;5103004;28;20020;-72
2022/05/30 04:55:11;;;;;;;16.98;3.00;;;;;;;10.75;70.96;100032.75;5103145;28;20100;-72
2022/05/30 04:57:45;;;;;;;9.73;1.80;;;;;;;10.70;71.01;100039.78;5105102;28;20024;-72
2022/05/30 05:00:12;;;;;;;7.18;2.40;;;;;;;10.69;70.83;100037.22;5107069;28;20035;-71
2022/05/30 05:02:37;;;;;;;6.00;2.35;;;;;;;10.72;70.90;100051.00;5107044;28;20061;-72
2022/05/30 05:05:04;;;;;;;11.52;2.25;;;;;;;10.79;70.77;100049.16;5088361;28;20024;-72
2022/05/30 05:07:55;;;;;;;8.00;2.67;;;;;;;10.84;70.78;100046.50;5106331;28;20092;-70
2022/05/30 05:10:40;;;;;;;7.45;2.33;;;;;;;10.94;70.51;100055.00;5092654;28;20036;-69
2022/05/30 05:13:05;;;;;;;10.95;2.30;;;;;;;10.92;70.32;100052.44;5106774;28;20040;-69
2022/05/30 05:15:31;;;;;;;7.32;2.35;;;;;;;10.97;70.32;100054.97;5106648;28;20062;-67
2022/05/30 05:17:56;;;;;;;11.75;2.03;;;;;;;10.99;70.16;100061.84;5106318;28;20020;-69
2022/05/30 05:20:23;;;;;;;9.55;2.20;;;;;;;11.03;69.99;100067.84;5106258;28;20020;-71
2022/05/30 05:22:49;;;;;;;8.38;2.38;;;;;;;11.08;70.00;100072.97;5106055;28;20022;-69
2022/05/30 05:25:15;;;;;;;12.32;2.42;;;;;;;11.14;69.79;100067.66;5106063;28;20027;-69
2022/05/30 05:27:40;;;;;;;11.10;2.50;;;;;;;11.20;70.10;100077.97;5106256;28;20024;-70
2022/05/30 05:30:07;;;;;;;11.32;2.25;;;;;;;11.31;69.85;100067.38;5105860;28;20024;-69
2022/05/30 05:32:32;;;;;;;9.25;2.38;;;;;;;11.43;69.15;100068.94;5087752;28;20375;-70
2022/05/30 05:34:57;;;;;;;10.50;2.10;;;;;;;11.49;69.16;100075.75;5105908;28;20039;-69
2022/05/30 05:37:23;;;;;;;7.60;2.15;;;;;;;11.58;68.79;100067.78;5105885;28;20028;-69
2022/05/30 05:39:49;;;;;;;8.38;2.30;;;;;;;11.67;68.49;100078.91;5087339;28;20100;-69
2022/05/30 05:42:14;;;;;;;6.30;1.90;;;;;;;11.72;68.59;100082.28;5105971;28;20045;-69
2022/05/30 05:44:40;;;;;;;7.57;2.28;;;;;;;11.84;68.28;100081.19;5105826;28;20271;-69
2022/05/30 05:47:06;;;;;;;8.40;2.10;;;;;;;11.98;68.56;100081.78;5105814;28;20028;-69
2022/05/30 05:49:32;;;;;;;11.20;1.75;;;;;;;12.22;67.78;100083.97;5105574;28;20031;-68
2022/05/30 05:51:57;;;;;;;12.88;1.90;;;;;;;12.30;66.54;100074.25;5105120;28;20051;-70
2022/05/30 05:54:25;;;;;;;12.68;2.78;;;;;;;12.28;66.04;100086.44;5105895;28;20028;-70
2022/05/30 05:56:51;;;;;;;8.07;2.83;;;;;;;12.24;66.11;100083.03;5105420;28;20020;-71
2022/05/30 05:59:17;;;;;;;8.02;1.85;;;;;;;12.28;66.10;100089.06;5105395;28;20028;-68
2022/05/30 06:01:43;;;;;;;13.05;2.33;;;;;;;12.27;65.29;100087.31;5105546;28;20088;-69
2022/05/30 06:04:10;;;;;;;10.43;2.22;;;;;;;12.16;65.35;100077.13;5105329;28;20020;-69
2022/05/30 06:06:36;;;;;;;4.20;1.70;;;;;;;12.10;65.76;100080.72;5105268;28;20020;-69
2022/05/30 06:09:04;;;;;;;9.30;2.13;;;;;;;12.20;65.59;100094.41;5104302;28;20077;-69
2022/05/30 06:11:31;;;;;;;9.82;2.13;;;;;;;12.28;65.57;100094.25;5105052;28;20481;-69
2022/05/30 06:13:57;;;;;;;7.10;1.73;;;;;;;12.39;65.41;100107.03;5105240;28;20075;-69
2022/05/30 06:16:28;;;;;;;10.25;2.58;;;;;;;12.48;65.13;100111.19;5105322;28;20024;-70
2022/05/30 06:18:56;;;;;;;12.20;2.60;;;;;;;12.62;65.29;100103.09;5105083;28;20093;-69
2022/05/30 06:21:24;;;;;;;7.72;2.10;;;;;;;12.80;65.17;100106.16;5104892;28;20024;-69
2022/05/30 06:23:51;;;;;;;8.13;2.20;;;;;;;12.99;64.91;100107.47;5105303;28;20028;-69
2022/05/30 06:26:17;;;;;;;6.65;2.05;;;;;;;13.18;64.12;100114.00;5105183;28;20046;-69
2022/05/30 06:28:43;;;;;;;7.50;1.95;;;;;;;13.32;63.77;100116.28;5104990;28;20495;-69
2022/05/30 06:31:12;;;;;;;11.88;2.92;;;;;;;13.37;62.51;100117.03;5104776;28;20047;-70
2022/05/30 06:33:38;;;;;;;8.20;2.40;;;;;;;13.31;62.29;100118.00;5104880;28;20024;-69
2022/05/30 06:36:07;;;;;;;9.18;2.83;;;;;;;13.33;62.38;100120.56;5105045;28;20154;-69
2022/05/30 06:38:33;;;;;;;11.38;2.28;;;;;;;13.41;62.41;100118.66;5104389;28;20066;-70
2022/05/30 06:41:21;;;;;;;15.10;2.38;;;;;;;13.60;62.41;100118.19;5104669;28;20020;-70
2022/05/30 06:43:47;;;;;;;9.35;1.95;;;;;;;13.82;61.46;100123.72;5104565;28;20024;-69
2022/05/30 06:46:14;;;;;;;8.52;2.45;;;;;;;13.89;60.63;100124.41;5104456;28;20054;-70
2022/05/30 06:48:41;;;;;;;14.18;2.08;;;;;;;14.13;60.89;100133.34;5104327;28;20113;-69
2022/05/30 06:51:13;;;;;;;10.27;2.15;;;;;;;14.43;59.56;100134.25;5104352;28;20048;-69
2022/05/30 06:53:43;;;;;;;7.57;1.92;;;;;;;14.56;59.14;100133.00;5104249;28;20031;-70
2022/05/30 06:56:17;;;;;;;10.60;2.20;;;;;;;14.60;58.66;100118.09;5104240;28;20123;-70
2022/05/30 06:58:45;;;;;;;6.50;1.60;;;;;;;14.97;58.86;100139.66;5104345;28;20043;-69
2022/05/30 07:01:10;;;;;;;7.82;1.75;;;;;;;15.30;58.41;100133.41;5104400;28;20074;-70
2022/05/30 07:03:37;;;;;;;10.00;1.80;;;;;;;15.68;57.09;100135.66;5104341;28;20036;-69
2022/05/30 07:06:07;;;;;;;12.20;2.38;;;;;;;15.81;55.98;100139.56;5085921;28;20024;-70
2022/05/30 07:08:33;;;;;;;8.07;1.85;;;;;;;15.94;55.77;100136.50;5104052;28;20134;-70
2022/05/30 07:10:58;;;;;;;10.20;1.70;;;;;;;16.38;55.64;100141.06;5104061;28;20043;-70
2022/05/30 07:13:23;;;;;;;9.27;1.90;;;;;;;16.85;53.42;100140.16;5104095;28;20024;-70
2022/05/30 07:15:51;;;;;;;8.80;1.58;;;;;;;17.40;52.58;100139.81;5104342;28;20036;-70
2022/05/30 07:18:18;;;;;;;6.72;1.33;;;;;;;17.96;51.40;100132.22;5104579;28;20048;-71
2022/05/30 07:20:43;;;;;;;4.88;1.58;;;;;;;18.53;50.23;100138.50;5104268;28;20042;-70
2022/05/30 07:23:10;;;;;;;8.18;1.50;;;;;;;19.02;48.10;100137.97;5104349;28;20015;-70
2022/05/30 07:25:38;;;;;;;6.25;1.58;;;;;;;19.29;45.76;100142.81;5104533;28;20412;-69
2022/05/30 07:28:04;;;;;;;11.27;1.63;;;;;;;19.51;45.75;100135.63;5086325;28;20032;-70
2022/05/30 07:30:30;;;;;;;7.75;1.80;;;;;;;19.96;45.49;100132.47;5104430;28;20093;-70
2022/05/30 07:32:56;;;;;;;5.63;1.70;;;;;;;20.65;44.90;100135.00;5104263;28;20024;-70
2022/05/30 07:35:22;;;;;;;12.10;2.28;;;;;;;21.19;42.69;100128.50;5104084;28;20032;-70
2022/05/30 07:37:49;;;;;;;11.07;1.85;;;;;;;22.19;42.51;100138.50;5103943;28;20028;-70
2022/05/30 07:40:14;;;;;;;5.40;1.35;;;;;;;23.05;39.79;100145.56;5104021;28;20040;-70
2022/05/30 07:42:41;;;;;;;6.75;1.80;;;;;;;23.55;37.45;100143.16;5104087;28;20026;-70
2022/05/30 07:45:07;;;;;;;7.85;1.63;;;;;;;23.89;36.79;100143.53;5104122;28;20027;-71
2022/05/30 07:47:33;;;;;;;7.53;1.50;;;;;;;24.24;36.80;100143.81;5103980;28;20023;-69
2022/05/30 07:50:02;;;;;;;8.10;1.75;;;;;;;24.51;36.34;100138.38;5103854;28;20028;-70
2022/05/30 07:52:32;;;;;;;5.82;2.08;;;;;;;25.14;35.91;100136.56;5103347;28;20072;-70
2022/05/30 07:54:58;;;;;;;6.22;1.67;;;;;;;25.73;35.00;100141.94;5103950;28;20044;-70
2022/05/30 08:00:10;;;;;;;6.55;1.85;;;;;;;25.88;33.04;100139.06;5103815;28;20085;-69
2022/05/30 08:02:37;;;;;;;9.32;1.85;;;;;;;26.39;33.25;100136.91;5103840;28;20020;-70
2022/05/30 08:05:04;;;;;;;5.82;1.63;;;;;;;26.80;32.04;100131.84;5103729;28;20043;-69
2022/05/30 08:07:29;;;;;;;7.50;1.80;;;;;;;27.09;30.39;100141.97;5103442;28;20030;-70
2022/05/30 08:09:54;;;;;;;9.65;2.00;;;;;;;27.52;30.56;100148.16;5103655;28;20092;-69
2022/05/30 08:12:20;;;;;;;6.45;1.58;;;;;;;27.72;30.04;100145.63;5103598;28;20028;-70
2022/05/30 08:14:45;;;;;;;8.00;1.60;;;;;;;27.71;29.47;100149.28;5085135;28;20027;-70
2022/05/30 08:17:10;;;;;;;7.10;1.65;;;;;;;28.07;28.99;100151.56;5103480;28;20137;-69
2022/05/30 08:19:40;;;;;;;8.98;2.08;;;;;;;28.29;28.92;100147.03;5103789;28;20024;-68
2022/05/30 08:22:09;;;;;;;6.57;2.00;;;;;;;27.60;28.57;100145.66;5103534;28;20020;-69
2022/05/30 08:24:40;;;;;;;5.93;2.08;;;;;;;27.24;29.00;100158.47;5103612;28;20024;-70
2022/05/30 08:27:05;;;;;;;;;;;;;;;27.00;30.45;100153.34;5103845;28;20020;-69
2022/05/30 08:29:31;;;;;;;8.98;2.30;;;;;;;26.52;30.36;100158.06;5103640;28;19945;-69
2022/05/30 08:31:57;;;;;;;3.90;1.50;;;;;;;26.08;30.43;100167.59;5104341;28;20101;-70
2022/05/30 08:34:22;;;;;;;6.20;2.13;;;;;;;25.16;31.15;100163.81;5107397;28;20031;-70
2022/05/30 08:36:48;;;;;;;8.63;1.70;;;;;;;24.36;31.98;100164.16;5107373;28;20087;-70
2022/05/30 08:42:00;;;;;;;6.20;1.90;;;;;;;22.71;34.61;100178.56;5107682;28;20092;-70
2022/05/30 08:44:29;;;;;;;6.18;1.80;;;;;;;21.99;35.71;100174.09;5107367;28;20035;-70
2022/05/30 08:47:15;;;;;;;6.07;2.00;;;;;;;21.26;37.01;100181.81;5107320;28;20024;-70
2022/05/30 08:49:52;;;;;;;8.35;1.58;;;;;;;20.83;38.05;100171.84;5107305;28;20047;-69
2022/05/30 08:52:43;;;;;;;8.38;2.00;;;;;;;20.46;38.67;100172.09;5106824;28;20071;-69
2022/05/30 08:55:28;;;;;;;5.63;2.13;;;;;;;20.17;40.10;100170.06;5107254;28;20027;-69
2022/05/30 08:58:13;;;;;;;8.95;2.20;;;;;;;20.23;40.85;100167.09;5107302;28;20106;-70
2022/05/30 09:00:59;;;;;;;8.77;2.38;;;;;;;20.77;40.66;100168.63;5107177;28;20052;-70
2022/05/30 09:03:35;;;;;;;8.10;2.05;;;;;;;21.44;39.93;100173.78;5107249;28;20028;-70
2022/05/30 09:06:04;;;;;;;11.55;2.22;;;;;;;22.11;38.99;100169.88;5088895;28;20395;-70
2022/05/30 09:08:35;;;;;;;6.25;1.85;;;;;;;22.61;38.06;100175.63;5106907;28;20028;-70
2022/05/30 09:11:10;;;;;;;5.50;1.80;;;;;;;23.56;37.34;100165.22;5107166;28;20068;-69
2022/05/30 09:13:42;;;;;;;7.28;1.77;;;;;;;24.51;35.60;100162.25;5106939;28;20036;-70
2022/05/30 09:16:21;;;;;;;6.35;1.70;;;;;;;25.26;33.66;100169.31;5088697;28;20024;-70
2022/05/30 09:18:49;;;;;;;5.50;1.58;;;;;;;24.95;33.07;100169.75;5106775;28;20020;-70
2022/05/30 09:21:16;;;;;;;5.60;1.73;;;;;;;23.98;33.99;100170.31;5106838;28;20038;-70
2022/05/30 09:23:42;;;;;;;8.25;2.13;;;;;;;23.06;35.06;100174.59;5106602;28;20027;-69
2022/05/30 09:26:16;;;;;;;7.68;1.90;;;;;;;21.97;36.56;100179.47;5106651;28;20458;-70
2022/05/30 09:28:44;;;;;;;6.53;1.70;;;;;;;21.28;37.69;100178.13;5106937;28;20101;-70
2022/05/30 09:31:46;;;;;;;8.98;2.20;;;;;;;20.76;38.79;100184.53;5106625;28;20463;-69
2022/05/30 09:34:30;;;;;;;9.82;2.15;;;;;;;20.02;40.32;100188.38;5106394;28;20336;-68
2022/05/30 09:36:55;;;;;;;6.57;2.58;;;;;;;19.74;41.10;100187.13;5106167;28;20470;-69
2022/05/30 09:39:21;;;;;;;7.70;2.35;;;;;;;19.44;42.30;100199.09;5106400;28;20119;-70
2022/05/30 09:41:53;;;;;;;5.57;1.77;;;;;;;18.99;44.01;100193.34;5106182;28;20040;-69
2022/05/30 09:44:21;;;;;;;10.18;2.60;;;;;;;18.69;45.79;100196.50;5106246;28;20020;-68
2022/05/30 09:46:52;;;;;;;9.68;2.92;;;;;;;18.38;46.62;100189.97;5106319;28;20067;-69
2022/05/30 09:49:23;;;;;;;10.60;2.00;;;;;;;18.30;47.64;100188.56;5106030;28;20023;-68
2022/05/30 09:51:55;;;;;;;5.95;1.98;;;;;;;18.40;48.86;100182.88;5105465;28;20059;-67
2022/05/30 09:54:26;;;;;;;;;;;;;;;18.68;47.83;100194.75;5088355;28;20106;-68
2022/05/30 09:57:41;;;;;;;5.43;1.83;;;;;;;19.30;48.40;100191.03;5105967;28;20375;-68
2022/05/30 10:00:14;;;;;;;7.10;2.03;;;;;;;19.87;47.49;100191.78;5105918;28;20109;-69
2022/05/30 10:02:44;;;;;;;9.93;2.33;;;;;;;19.89;47.40;100192.56;5105957;28;20023;-69
2022/05/30 10:05:15;;;;;;;6.03;2.00;;;;;;;19.71;46.93;100195.19;5105830;28;20027;-69
2022/05/30 10:07:55;;;;;;;4.23;2.17;;;;;;;19.57;46.76;100206.41;5105763;28;20439;-70
2022/05/30 10:10:28;;;;;;;7.68;2.10;;;;;;;19.39;47.61;100201.09;5105327;28;20024;-70
2022/05/30 10:13:00;;;;;;;4.70;1.85;;;;;;;19.22;47.65;100201.09;5105223;28;20024;-70
2022/05/30 10:15:38;;;;;;;9.57;3.10;;;;;;;19.15;48.17;100211.06;5105493;28;20024;-70
2022/05/30 10:18:12;;;;;;;8.02;1.63;;;;;;;18.98;48.97;100201.31;5105729;28;20036;-70
2022/05/30 10:21:11;;;;;;;6.85;2.25;;;;;;;18.80;49.55;100202.06;5105538;28;20062;-70
2022/05/30 10:30:40;;;;;;;7.13;2.28;;;;;;;18.33;50.68;100196.31;5002797;28;20041;-68
2022/05/30 10:33:23;;;;;;;9.50;2.45;;;;;;;17.92;52.08;100189.25;5002733;28;20034;-67
2022/05/30 10:36:03;;;;;;;4.60;2.03;;;;;;;17.59;53.47;100190.63;5002845;28;20037;-69
2022/05/30 10:38:43;;;;;;;6.10;1.90;;;;;;;17.42;54.33;100174.72;5002566;28;20038;-67
2022/05/30 10:41:19;;;;;;;9.52;3.00;;;;;;;17.38;54.87;100181.84;5002529;28;20486;-69
2022/05/30 10:44:03;;;;;;;12.02;2.13;;;;;;;17.46;55.53;100176.28;5002696;28;20038;-69
2022/05/30 10:46:48;;;;;;;6.97;2.28;;;;;;;17.66;54.63;100169.38;5002573;28;20097;-69
2022/05/30 10:49:16;;;;;;;12.07;2.30;;;;;;;17.96;54.15;100184.72;5002594;28;20370;-69
2022/05/30 10:51:57;;;;;;;9.93;2.70;;;;;;;18.27;53.89;100183.44;5002037;28;20046;-69
2022/05/30 10:54:34;;;;;;;6.72;2.35;;;;;;;18.72;53.09;100201.59;5002210;28;20037;-70
2022/05/30 10:57:32;;;;;;;7.38;2.42;;;;;;;18.95;52.71;100205.78;5002343;28;20034;-70
2022/05/30 11:00:06;;;;;;;6.47;2.20;;;;;;;19.21;51.92;100200.25;5002204;28;20573;-69
2022/05/30 11:02:40;;;;;;;6.15;2.33;;;;;;;19.42;51.06;100205.38;5002280;28;20100;-70
2022/05/30 11:05:21;;;;;;;5.88;3.00;;;;;;;19.55;50.42;100203.84;5047534;28;20070;-70
2022/05/30 11:08:05;;;;;;;9.18;3.10;;;;;;;19.63;49.99;100192.91;5104673;28;20024;-70
2022/05/30 11:10:38;;;;;;;7.43;3.08;;;;;;;19.62;50.40;100193.00;5104602;28;20028;-70
2022/05/30 11:13:18;;;;;;;7.45;2.60;;;;;;;19.62;50.45;100183.34;5104541;28;20042;-70
2022/05/30 11:15:50;;;;;;;9.85;2.55;;;;;;;19.75;50.79;100186.19;5104302;28;20430;-70
2022/05/30 11:18:30;;;;;;;7.82;1.90;;;;;;;19.80;49.76;100186.81;5104702;28;20054;-71
2022/05/30 11:21:20;;;;;;;7.28;2.17;;;;;;;19.54;48.97;100196.00;5104579;28;20053;-71
2022/05/30 11:23:46;;;;;;;5.45;1.45;;;;;;;19.22;48.90;100180.88;5104184;28;20019;-70
2022/05/30 11:26:38;;;;;;;5.32;2.30;;;;;;;18.71;48.89;100186.72;5104101;28;20091;-69
2022/05/30 11:29:37;;;;;;;5.18;1.60;;;;;;;18.11;50.45;100188.47;5104025;28;20031;-69
2022/05/30 11:32:24;;;;;;;5.57;1.80;;;;;;;17.87;51.06;100191.25;5103806;28;20113;-70
2022/05/30 11:34:55;;;;;;;6.45;2.13;;;;;;;17.71;50.87;100197.16;5103827;28;20032;-70
2022/05/30 11:38:06;;;;;;;6.90;1.80;;;;;;;17.81;51.04;100194.13;5103599;28;20487;-71
2022/05/30 11:40:53;;;;;;;3.08;1.73;;;;;;;18.04;50.82;100200.16;5072684;28;20028;-69
2022/05/30 11:43:48;;;;;;;6.68;2.03;;;;;;;18.23;51.12;100191.53;5103902;28;20574;-71
2022/05/30 11:46:19;;;;;;;5.07;1.70;;;;;;;18.55;50.82;100197.09;5103868;28;20024;-68
2022/05/30 11:48:56;;;;;;;4.55;1.80;;;;;;;18.73;50.37;100191.91;5103743;28;20055;-68
2022/05/30 11:51:54;;;;;;;6.30;2.38;;;;;;;18.86;50.12;100185.19;5103275;28;20093;-69
2022/05/30 11:54:30;;;;;;;4.85;1.50;;;;;;;19.03;49.74;100189.63;5103793;28;20031;-70
2022/05/30 11:57:17;;;;;;;4.57;1.38;;;;;;;19.20;49.40;100182.75;5085212;28;20411;-69
2022/05/30 11:59:56;;;;;;;4.50;1.83;;;;;;;19.24;48.37;100179.03;5103828;28;20043;-70
2022/05/30 12:02:30;;;;;;;6.13;1.70;;;;;;;19.13;48.37;100186.59;5103835;28;20116;-71
2022/05/30 12:05:32;;;;;;;5.78;1.45;;;;;;;18.93;48.73;100176.06;5103385;28;20016;-70
2022/05/30 12:08:04;;;;;;;;;;;;;;;18.70;47.87;100185.03;5102572;28;20442;-70